• Join FlightAware (Why Join?)
  • Login
  • US Flag 
08:00PM EST


 

Airport Tracker/Info


-or-


 

Live Flight TrackerFlight Track Log ✈ N20AZ ✈ 30-Jun-2013 ✈ KSRQ - KRYY

Flight Track Log - Related Links

Times and Time Zones

All times are in EDT time to prevent confusion due to time zone crossing. See the N20AZ flight status page for this flight to view local times or setup timezone preferences in your user account.

Time Position Orientation Groundspeed Altitude Reporting Facility
EDT Latitude Longitude Course Direction KTS MPH feet Rate Location/Type
10:10AM 27.3833 -82.5667 318° Northwest 110 127 400  Level Tampa TRACON
10:11AM 27.4000 -82.5833 318° Northwest 129 148 800 480 Climbing Tampa TRACON
10:12AM 27.4333 -82.6167 318° Northwest 131 151 1,400 540 Climbing Tampa TRACON
10:13AM 27.4500 -82.6333 318° Northwest 133 153 1,900 300 Climbing Tampa TRACON
10:14AM 27.4833 -82.6667 318° Northwest 145 167 2,000 240 Climbing Tampa TRACON
10:15AM 27.5167 -82.6833 336° Northwest 130 150 2,500 480 Climbing Tampa TRACON
10:16AM 27.5500 -82.7000 336° Northwest 130 150 3,000 480 Climbing Tampa TRACON
10:17AM 27.5833 -82.7333 318° Northwest 127 146 3,500 600 Climbing Tampa TRACON
10:18AM 27.6000 -82.7500 318° Northwest 124 143 4,100 600 Climbing Tampa TRACON
10:19AM 27.6333 -82.7667 336° Northwest 119 137 4,800 360 Climbing Tampa TRACON
10:20AM 27.6667 -82.8000 318° Northwest 142 163 4,900  Climbing Tampa TRACON
10:21AM 27.7000 -82.8167 336° Northwest 153 176 4,900  Level Tampa TRACON
10:22AM 27.7333 -82.8500 318° Northwest 152 175 4,900  Level Tampa TRACON
10:23AM 27.7833 -82.8500 360° North 163 188 4,900  Level Tampa TRACON
10:24AM 27.8333 -82.8667 344° North 162 186 4,900  Level Tampa TRACON
10:25AM 27.8667 -82.8667 360° North 162 186 4,900  Level Tampa TRACON
10:26AM 27.9167 -82.8667 360° North 159 183 4,900  Level Tampa TRACON
10:27AM 27.9667 -82.8667 360° North 158 182 4,900  Level Tampa TRACON
10:28AM 28.0000 -82.8667 360° North 156 180 4,900  Level Tampa TRACON
10:29AM 28.0500 -82.8833 344° North 159 183 4,900  Level Tampa TRACON
10:30AM 28.0833 -82.8833 360° North 165 190 4,900  Level Tampa TRACON
10:31AM 28.1333 -82.8833 360° North 157 181 4,900  Level Tampa TRACON
10:32AM 28.1667 -82.9000 336° Northwest 155 178 4,900 60 Level Tampa TRACON
10:34AM 28.2481 -82.9161 350° North 146 168 5,200 180 Climbing Jacksonville Center
10:35AM 28.2856 -82.9233 350° North 146 168 5,600 300 Climbing Jacksonville Center
10:36AM 28.3211 -82.9372 341° North 146 168 5,900 300 Climbing Jacksonville Center
10:37AM 28.3586 -82.9467 348° North 146 168 6,300 360 Climbing Jacksonville Center
10:38AM 28.3961 -82.9564 347° North 146 168 6,700 360 Climbing Jacksonville Center
10:39AM 28.4336 -82.9633 351° North 141 162 7,100 360 Climbing Jacksonville Center
10:40AM 28.4692 -82.9728 347° North 141 162 7,500 360 Climbing Jacksonville Center
10:41AM 28.5067 -82.9822 348° North 136 157 7,900 120 Climbing Jacksonville Center
10:42AM 28.5464 -82.9967 342° North 136 157 7,800  Descending Jacksonville Center
10:43AM 28.5881 -83.0036 352° North 141 162 7,900  Climbing Jacksonville Center
10:44AM 28.6319 -83.0108 352° North 147 169 7,900  Level Jacksonville Center
10:45AM 28.6736 -83.0250 343° North 147 169 7,900  Level Jacksonville Center
10:46AM 28.7133 -83.0369 345° North 147 169 7,900  Level Jacksonville Center
10:47AM 28.7572 -83.0511 344° North 147 169 7,900  Level Jacksonville Center
10:48AM 28.8008 -83.0608 349° North 147 169 7,900  Level Jacksonville Center
10:49AM 28.8406 -83.0728 345° North 147 169 7,900  Level Jacksonville Center
10:50AM 28.8844 -83.0822 349° North 147 169 7,900  Level Jacksonville Center
10:51AM 28.9239 -83.0967 342° North 147 169 7,900  Level Jacksonville Center
10:52AM 28.9678 -83.1086 347° North 147 169 7,900  Level Jacksonville Center
10:53AM 29.0094 -83.1181 349° North 147 169 7,900  Level Jacksonville Center
10:54AM 29.0514 -83.1300 346° North 147 169 7,900  Level Jacksonville Center
10:55AM 29.0931 -83.1397 348° North 147 169 7,900  Level Jacksonville Center
10:56AM 29.1347 -83.1517 346° North 147 169 7,900  Level Jacksonville Center
10:57AM 29.1786 -83.1636 347° North 147 169 7,900  Level Jacksonville Center
10:58AM 29.2203 -83.1758 346° North 147 169 8,000  Climbing Jacksonville Center
10:59AM 29.2619 -83.1878 346° North 147 169 7,900 -60 Descending Jacksonville Center
11:00AM 29.3017 -83.1975 348° North 152 175 7,900  Level Jacksonville Center
11:01AM 29.3350 -83.2236 326° Northwest 152 175 7,900  Level Jacksonville Center
11:02AM 29.3725 -83.2500 328° Northwest 152 175 7,900  Level Jacksonville Center
11:03AM 29.4078 -83.2739 329° Northwest 152 175 7,900  Level Jacksonville Center
11:04AM 29.4453 -83.2981 331° Northwest 152 175 7,900  Level Jacksonville Center
11:05AM 29.4808 -83.3197 332° Northwest 152 175 7,900  Level Jacksonville Center
11:06AM 29.5225 -83.3317 346° North 147 169 7,900  Level Jacksonville Center
11:07AM 29.5642 -83.3414 349° North 147 169 7,900  Level Jacksonville Center
11:08AM 29.6081 -83.3536 346° North 147 169 7,900  Level Jacksonville Center
11:09AM 29.6497 -83.3633 349° North 147 169 7,900  Level Jacksonville Center
11:10AM 29.6936 -83.3731 349° North 147 169 8,000  Climbing Jacksonville Center
11:11AM 29.7375 -83.3828 349° North 152 175 7,900 -60 Descending Jacksonville Center
11:12AM 29.7792 -83.3975 343° North 152 175 7,900  Level Jacksonville Center
11:13AM 29.8186 -83.4072 348° North 152 175 7,900  Level Jacksonville Center
11:14AM 29.8625 -83.4172 349° North 152 175 7,900  Level Jacksonville Center
11:15AM 29.9022 -83.4269 348° North 147 169 7,900  Level Jacksonville Center
11:16AM 29.9439 -83.4392 346° North 147 169 7,900  Level Jacksonville Center
11:17AM 29.9856 -83.4489 349° North 147 169 7,900  Level Jacksonville Center
11:18AM 30.0294 -83.4589 349° North 147 169 7,900  Level Jacksonville Center
11:19AM 30.0711 -83.4711 346° North 147 169 7,900  Level Jacksonville Center
11:20AM 30.1147 -83.4833 346° North 147 169 7,900  Level Jacksonville Center
11:21AM 30.1567 -83.4931 349° North 147 169 7,900  Level Jacksonville Center
11:22AM 30.2003 -83.5031 349° North 147 169 7,900  Level Jacksonville Center
11:23AM 30.2419 -83.5153 346° North 147 169 7,900  Level Jacksonville Center
11:24AM 30.2858 -83.5253 349° North 147 169 7,900  Level Jacksonville Center
11:25AM 30.3275 -83.5350 349° North 147 169 7,900  Level Jacksonville Center
11:26AM 30.3692 -83.5450 348° North 147 169 8,000  Climbing Jacksonville Center
11:26AM 30.3983 -83.5547 344° North 156 180 7,900 -120 Descending Jacksonville Center
11:27AM 30.4381 -83.5672 345° North 154 177 7,900  Level Jacksonville Center
11:28AM 30.4817 -83.5794 346° North 156 180 7,900  Level Jacksonville Center
11:29AM 30.5297 -83.5872 352° North 153 176 7,900  Level Jacksonville Center
11:30AM 30.5778 -83.6019 345° North 153 176 7,900  Level Jacksonville Center
11:31AM 30.6131 -83.6142 343° North 148 170 7,900  Level Jacksonville Center
11:32AM 30.6589 -83.6267 347° North 154 177 7,900  Level Jacksonville Center
11:33AM 30.6589 -83.6267 347° North 148 170 7,900  Level Jacksonville Center
11:33AM 30.7008 -83.6319 354° North 154 177 7,900  Level Jacksonville Center
11:35AM 30.7425 -83.6467 343° North 148 170 7,900  Level Jacksonville Center
11:35AM 30.7800 -83.6614 341° North 152 175 7,900  Level Jacksonville Center
11:37AM 30.8278 -83.6692 352° North 153 176 7,900  Level Jacksonville Center
11:38AM 30.8717 -83.6817 346° North 150 173 7,900  Level Jacksonville Center
11:39AM 30.9092 -83.6939 344° North 151 174 7,900  Level Jacksonville Center
11:40AM 30.9531 -83.7067 346° North 154 177 7,900  Level Jacksonville Center
11:42AM 31.0383 -83.7242 350° North 151 174 7,900  Level Jacksonville Center
11:43AM 31.0758 -83.7367 344° North 151 174 7,900  Level Jacksonville Center
11:44AM 31.1197 -83.7444 351° North 153 176 7,900  Level Jacksonville Center
11:45AM 31.1592 -83.7569 345° North 150 173 7,900  Level Jacksonville Center
11:46AM 31.2011 -83.7669 348° North 149 171 7,900  Level Jacksonville Center
11:47AM 31.2447 -83.7769 349° North 154 177 8,000  Climbing Jacksonville Center
11:48AM 31.2844 -83.7872 348° North 154 177 7,900 -60 Descending Jacksonville Center
11:49AM 31.3261 -83.7997 346° North 154 177 7,900  Level Jacksonville Center
11:50AM 31.3656 -83.8100 347° North 149 171 7,900  Level Jacksonville Center
11:52AM 31.4533 -83.8131 358° North 144 166 8,000  Climbing Jacksonville Center
11:53AM 31.4950 -83.8064 North 144 166 7,900  Descending Jacksonville Center
11:54AM 31.5325 -83.8164 347° North 144 166 8,000  Climbing Jacksonville Center
11:55AM 31.5722 -83.8339 339° North 139 160 8,000  Level Jacksonville Center
11:57AM 31.6494 -83.8467 352° North 145 167 8,000  Level Jacksonville Center
11:58AM 31.6953 -83.8594 347° North 145 167 8,000  Level Jacksonville Center
11:59AM 31.7369 -83.8697 348° North 145 167 8,000  Level Jacksonville Center
12:00PM 31.7744 -83.8822 344° North 145 167 8,000  Level Jacksonville Center
12:02PM 31.8413 -83.9148 338° Northwest  Level FlightAware Approximate
12:04PM 31.9333 -83.9333 346° North 149 171 8,000  Level Atlanta TRACON
12:05PM 31.9833 -83.9333 360° North 152 175 8,000  Level Atlanta TRACON
12:06PM 32.0167 -83.9500 337° Northwest 154 177 8,000  Level Atlanta TRACON
12:08PM 32.0833 -83.9667 348° North 146 168 8,000  Level Atlanta TRACON
12:09PM 32.1166 -84.0358 346° North  Level FlightAware Approximate
12:09PM 32.1333 -83.9833 344° North 148 170 8,000  Level Atlanta TRACON
12:11PM 32.2167 -84.0167 341° North 144 166 8,000  Level Atlanta TRACON
12:12PM 32.2500 -84.0167 360° North 150 173 8,000 -60 Level Atlanta TRACON
12:13PM 32.3000 -84.0333 344° North 153 176 7,900 -180 Descending Atlanta TRACON
12:14PM 32.3333 -84.0500 337° Northwest 152 175 7,700 -420 Descending Atlanta TRACON
12:15PM 32.3833 -84.0500 360° North 162 186 7,100 -600 Descending Atlanta TRACON
12:16PM 32.4167 -84.0667 337° Northwest 159 183 6,500 -540 Descending Atlanta TRACON
12:17PM 32.4667 -84.0833 344° North 158 182 6,100 -300 Descending Atlanta TRACON
12:18PM 32.5000 -84.1000 337° Northwest 145 167 5,900 -60 Descending Atlanta TRACON
12:20PM 32.5833 -84.1167 350° North 144 166 6,000  Climbing Atlanta TRACON
12:22PM 32.6573 -84.1443 343° North  Level FlightAware Approximate
12:23PM 32.7000 -84.1000 343° North 149 171 6,000  Level Atlanta TRACON
12:25PM 32.7833 -84.1167 350° North 148 170 6,000  Level Atlanta TRACON
12:27PM 32.8667 -84.1333 350° North 146 168 6,000  Level Atlanta TRACON
12:28PM 32.9000 -84.1500 337° Northwest 149 171 6,000  Level Atlanta TRACON
12:29PM 32.9333 -84.1667 337° Northwest 148 170 6,000  Level Atlanta TRACON
12:30PM 32.9667 -84.1833 337° Northwest 146 168 6,000  Level Atlanta TRACON
12:31PM 33.0167 -84.2000 344° North 140 161 6,000  Level Atlanta TRACON
12:32PM 33.0500 -84.2167 337° Northwest 143 165 6,000  Level Atlanta TRACON
12:33PM 33.0833 -84.2167 360° North 144 166 6,000 -60 Level Atlanta TRACON
12:34PM 33.1333 -84.2333 344° North 141 162 5,900 -360 Descending Atlanta TRACON
12:35PM 33.1667 -84.2500 337° Northwest 148 170 5,300 -480 Descending Atlanta TRACON
12:36PM 33.2167 -84.2667 344° North 147 169 4,900 -240 Descending Atlanta TRACON
12:37PM 33.2500 -84.2833 337° Northwest 143 165 4,900  Level Atlanta TRACON
12:38PM 33.2833 -84.3000 337° Northwest 143 165 4,900  Level Atlanta TRACON
12:39PM 33.3167 -84.3167 337° Northwest 143 165 4,900  Level Atlanta TRACON
12:40PM 33.3667 -84.3333 344° North 143 165 4,900  Level Atlanta TRACON
12:41PM 33.4000 -84.3500 337° Northwest 145 167 4,900  Level Atlanta TRACON
12:42PM 33.4333 -84.3667 337° Northwest 144 166 4,900  Level Atlanta TRACON
12:43PM 33.4667 -84.3667 360° North 145 167 4,900  Level Atlanta TRACON
12:44PM 33.5167 -84.3667 360° North 147 169 4,900  Level Atlanta TRACON
12:45PM 33.5500 -84.3833 337° Northwest 146 168 4,900  Level Atlanta TRACON
12:46PM 33.6000 -84.3667 16° North 146 168 4,900  Level Atlanta TRACON
12:47PM 33.6333 -84.3833 337° Northwest 150 173 4,900  Level Atlanta TRACON
12:48PM 33.6833 -84.3833 360° North 145 167 4,900  Level Atlanta TRACON
12:49PM 33.7167 -84.3833 360° North 142 163 4,900  Level Atlanta TRACON
12:50PM 33.7500 -84.4000 337° Northwest 145 167 4,900  Level Atlanta TRACON
12:51PM 33.8000 -84.4000 360° North 144 166 4,900  Level Atlanta TRACON
12:52PM 33.8333 -84.4000 360° North 147 169 4,900  Level Atlanta TRACON
12:53PM 33.8667 -84.4167 337° Northwest 147 169 4,900 -300 Level Atlanta TRACON
12:54PM 33.9167 -84.4167 360° North 151 174 4,400 -720 Descending Atlanta TRACON
12:55PM 33.9500 -84.4333 337° Northwest 155 178 3,500 -720 Descending Atlanta TRACON
12:56PM 33.9833 -84.4833 309° West 155 178 3,000 -780 Descending Atlanta TRACON
12:57PM 34.0000 -84.5167 301° West 143 165 1,900 -840 Descending Atlanta TRACON
12:58PM 34.0167 -84.5667 292° West 118 136 1,400 -540 Descending Atlanta TRACON